N.dadayli — TCCW7 — position and weather

sailwx.info

Track history (hours):
 
Tides and Currents Weather Stations Pressure Air Temp Water Temp Dewpoint Dewpoint Depression Visibility Wind Speed Wind Dir Waves Ship Positions

N.dadayli

Last reported at 2016-May-12 15:31 UTC. Time now 2016-May-27 10:24 UTC.
Position N 37°51' E 015°54'.
Warning: this ship's position is 14 days out of date.

Length 101 m; draft 5 m.

Type: Ship. MMSI: 271000768.

Date/timePositionNaut miles runAvg speedWind from/ knotsBaromVisibWave heightAir tempDewpointWater temp
2016-May-12 15:31N 37°51' E 015°54'1212.2
2016-May-12 14:34N 37°55' E 015°40'1211.8
2016-May-12 13:33N 38°06' E 015°35'1212.2
2016-May-12 12:33N 38°18' E 015°39'1312.7
2016-May-12 11:33N 38°27' E 015°28'1313.1
2016-May-12 10:33N 38°37' E 015°17'37111.6
2016-May-11 02:30N 43°03' E 009°34'9 9.9
2016-May-11 01:33N 43°11' E 009°30'10 9.7
2016-May-11 00:33N 43°21' E 009°26'1010.0
2016-May-10 23:33N 43°30' E 009°21'10 9.9
2016-May-10 22:33N 43°39' E 009°16'1010.2
2016-May-10 21:33N 43°49' E 009°11'1111.3
2016-May-10 20:33N 43°60' E 009°06'1111.2
2016-May-10 19:33N 44°10' E 009°01'1111.0
2016-May-10 18:33N 44°21' E 008°58'4 3.7
2016-May-10 17:30N 44°24' E 008°54'0 0.0
2016-May-10 16:33N 44°24' E 008°54'0 0.0
2016-May-10 15:33N 44°24' E 008°54'0 0.0
2016-May-10 14:33N 44°24' E 008°54'0 0.0
2016-May-10 13:33N 44°24' E 008°54'0 0.0
2016-May-10 12:33N 44°24' E 008°54'0 0.0
2016-May-10 11:33N 44°24' E 008°54'0 0.0
2016-May-10 10:33N 44°24' E 008°54'0 0.0
2016-May-10 09:33N 44°24' E 008°54'0 0.0
2016-May-10 08:30N 44°24' E 008°54'0 0.0
2016-May-10 07:33N 44°24' E 008°54'0 0.0
2016-May-10 06:30N 44°24' E 008°54'0 0.0
2016-May-10 05:30N 44°24' E 008°54'0 0.0
2016-May-10 04:33N 44°24' E 008°54'0 0.0
2016-May-10 03:33N 44°24' E 008°54'0 0.0
2016-May-10 02:33N 44°24' E 008°54'0 0.0
2016-May-10 01:33N 44°24' E 008°54'0 0.0
2016-May-10 00:33N 44°24' E 008°54'0 0.0
2016-May-09 23:33N 44°24' E 008°54'0 0.0
2016-May-09 22:33N 44°24' E 008°54'0 0.0
2016-May-09 21:33N 44°24' E 008°54'0 0.0
2016-May-09 20:33N 44°24' E 008°54'0 0.0
2016-May-09 19:33N 44°24' E 008°54'0 0.0
2016-May-09 18:33N 44°24' E 008°54'0 0.0
2016-May-09 17:30N 44°24' E 008°54'0 0.0
2016-May-09 16:33N 44°24' E 008°54'0 0.0
2016-May-09 15:30N 44°24' E 008°54'0 0.0
2016-May-09 14:33N 44°24' E 008°54'0 0.0
2016-May-09 13:33N 44°24' E 008°54'0 0.0
2016-May-09 12:33N 44°24' E 008°54'0 0.0
2016-May-09 11:33N 44°24' E 008°54'0 0.0
2016-May-09 10:33N 44°24' E 008°54'0 0.0
2016-May-09 09:33N 44°24' E 008°54'0 0.0
2016-May-09 08:33N 44°24' E 008°54'0 0.0
2016-May-09 07:33N 44°24' E 008°54'0 0.0
2016-May-09 06:30N 44°24' E 008°54'0 0.0
2016-May-09 05:30N 44°24' E 008°54'1 0.7
2016-May-09 04:33N 44°24' E 008°55'1 1.1
2016-May-09 03:32N 44°23' E 008°55'0 0.0
2016-May-09 02:29N 44°23' E 008°55'0 0.0
2016-May-09 01:32N 44°23' E 008°55'0 0.0
2016-May-09 00:32N 44°23' E 008°55'0 0.1
2016-May-08 23:29N 44°23' E 008°55'0 0.0
2016-May-08 22:32N 44°23' E 008°55'0 0.0
2016-May-08 21:32N 44°23' E 008°55'0 0.0
2016-May-08 20:32N 44°23' E 008°55'0 0.0
2016-May-08 19:32N 44°23' E 008°55'0 0.0
2016-May-08 18:29N 44°23' E 008°55'0 0.0
2016-May-08 17:29N 44°23' E 008°55'0 0.0
2016-May-08 16:32N 44°23' E 008°55'0 0.0
2016-May-08 15:32N 44°23' E 008°55'0 0.0
2016-May-08 14:32N 44°23' E 008°55'0 0.0
2016-May-08 13:32N 44°23' E 008°55'0 0.0
2016-May-08 12:32N 44°23' E 008°55'0 0.0
2016-May-08 11:32N 44°23' E 008°55'0 0.0
2016-May-08 10:33N 44°23' E 008°55'0 0.0
2016-May-08 09:33N 44°23' E 008°55'0 0.0
2016-May-08 08:33N 44°23' E 008°55'0 0.1
2016-May-08 07:33N 44°23' E 008°55'1 1.4
2016-May-08 06:33N 44°22' E 008°56'9 9.2
2016-May-08 05:33N 44°13' E 009°01'1110.6
2016-May-08 04:33N 44°03' E 009°05'1110.6
2016-May-08 03:33N 43°53' E 009°09'1110.8
2016-May-08 02:33N 43°43' E 009°15'1111.2
2016-May-08 01:33N 43°32' E 009°20'1111.2
2016-May-08 00:33N 43°21' E 009°25'1110.9
2016-May-07 23:33N 43°11' E 009°30'1111.2
2016-May-07 22:33N 43°00' E 009°35'8010.9
2016-May-07 15:13N 41°43' E 010°01'355 8.0
2016-May-05 19:06N 35°50' E 010°39'0 0.0
2016-May-05 13:06N 35°50' E 010°39'  
Track history (hours):
 
Tides and Currents Weather Stations Pressure Air Temp Water Temp Dewpoint Dewpoint Depression Visibility Wind Speed Wind Dir Waves Ship Positions

N.dadayli

Last reported at 2016-May-12 15:31 UTC. Time now 2016-May-27 10:24 UTC.
Position N 37°51' E 015°54'.
Warning: this ship's position is 14 days out of date.

Length 101 m; draft 5 m.

Type: Ship. MMSI: 271000768.

Date/timePositionNaut miles runAvg speedWind from/ knotsBaromVisibWave heightAir tempDewpointWater temp
2016-May-12 15:31N 37°51' E 015°54'1212.2
2016-May-12 14:34N 37°55' E 015°40'1211.8
2016-May-12 13:33N 38°06' E 015°35'1212.2
2016-May-12 12:33N 38°18' E 015°39'1312.7
2016-May-12 11:33N 38°27' E 015°28'1313.1
2016-May-12 10:33N 38°37' E 015°17'37111.6
2016-May-11 02:30N 43°03' E 009°34'9 9.9
2016-May-11 01:33N 43°11' E 009°30'10 9.7
2016-May-11 00:33N 43°21' E 009°26'1010.0
2016-May-10 23:33N 43°30' E 009°21'10 9.9
2016-May-10 22:33N 43°39' E 009°16'1010.2
2016-May-10 21:33N 43°49' E 009°11'1111.3
2016-May-10 20:33N 43°60' E 009°06'1111.2
2016-May-10 19:33N 44°10' E 009°01'1111.0
2016-May-10 18:33N 44°21' E 008°58'4 3.7
2016-May-10 17:30N 44°24' E 008°54'0 0.0
2016-May-10 16:33N 44°24' E 008°54'0 0.0
2016-May-10 15:33N 44°24' E 008°54'0 0.0
2016-May-10 14:33N 44°24' E 008°54'0 0.0
2016-May-10 13:33N 44°24' E 008°54'0 0.0
2016-May-10 12:33N 44°24' E 008°54'0 0.0
2016-May-10 11:33N 44°24' E 008°54'0 0.0
2016-May-10 10:33N 44°24' E 008°54'0 0.0
2016-May-10 09:33N 44°24' E 008°54'0 0.0
2016-May-10 08:30N 44°24' E 008°54'0 0.0
2016-May-10 07:33N 44°24' E 008°54'0 0.0
2016-May-10 06:30N 44°24' E 008°54'0 0.0
2016-May-10 05:30N 44°24' E 008°54'0 0.0
2016-May-10 04:33N 44°24' E 008°54'0 0.0
2016-May-10 03:33N 44°24' E 008°54'0 0.0
2016-May-10 02:33N 44°24' E 008°54'0 0.0
2016-May-10 01:33N 44°24' E 008°54'0 0.0
2016-May-10 00:33N 44°24' E 008°54'0 0.0
2016-May-09 23:33N 44°24' E 008°54'0 0.0
2016-May-09 22:33N 44°24' E 008°54'0 0.0
2016-May-09 21:33N 44°24' E 008°54'0 0.0
2016-May-09 20:33N 44°24' E 008°54'0 0.0
2016-May-09 19:33N 44°24' E 008°54'0 0.0
2016-May-09 18:33N 44°24' E 008°54'0 0.0
2016-May-09 17:30N 44°24' E 008°54'0 0.0
2016-May-09 16:33N 44°24' E 008°54'0 0.0
2016-May-09 15:30N 44°24' E 008°54'0 0.0
2016-May-09 14:33N 44°24' E 008°54'0 0.0
2016-May-09 13:33N 44°24' E 008°54'0 0.0
2016-May-09 12:33N 44°24' E 008°54'0 0.0
2016-May-09 11:33N 44°24' E 008°54'0 0.0
2016-May-09 10:33N 44°24' E 008°54'0 0.0
2016-May-09 09:33N 44°24' E 008°54'0 0.0
2016-May-09 08:33N 44°24' E 008°54'0 0.0
2016-May-09 07:33N 44°24' E 008°54'0 0.0
2016-May-09 06:30N 44°24' E 008°54'0 0.0
2016-May-09 05:30N 44°24' E 008°54'1 0.7
2016-May-09 04:33N 44°24' E 008°55'1 1.1
2016-May-09 03:32N 44°23' E 008°55'0 0.0
2016-May-09 02:29N 44°23' E 008°55'0 0.0
2016-May-09 01:32N 44°23' E 008°55'0 0.0
2016-May-09 00:32N 44°23' E 008°55'0 0.1
2016-May-08 23:29N 44°23' E 008°55'0 0.0
2016-May-08 22:32N 44°23' E 008°55'0 0.0
2016-May-08 21:32N 44°23' E 008°55'0 0.0
2016-May-08 20:32N 44°23' E 008°55'0 0.0
2016-May-08 19:32N 44°23' E 008°55'0 0.0
2016-May-08 18:29N 44°23' E 008°55'0 0.0
2016-May-08 17:29N 44°23' E 008°55'0 0.0
2016-May-08 16:32N 44°23' E 008°55'0 0.0
2016-May-08 15:32N 44°23' E 008°55'0 0.0
2016-May-08 14:32N 44°23' E 008°55'0 0.0
2016-May-08 13:32N 44°23' E 008°55'0 0.0
2016-May-08 12:32N 44°23' E 008°55'0 0.0
2016-May-08 11:32N 44°23' E 008°55'0 0.0
2016-May-08 10:33N 44°23' E 008°55'0 0.0
2016-May-08 09:33N 44°23' E 008°55'0 0.0
2016-May-08 08:33N 44°23' E 008°55'0 0.1
2016-May-08 07:33N 44°23' E 008°55'1 1.4
2016-May-08 06:33N 44°22' E 008°56'9 9.2
2016-May-08 05:33N 44°13' E 009°01'1110.6
2016-May-08 04:33N 44°03' E 009°05'1110.6
2016-May-08 03:33N 43°53' E 009°09'1110.8
2016-May-08 02:33N 43°43' E 009°15'1111.2
2016-May-08 01:33N 43°32' E 009°20'1111.2
2016-May-08 00:33N 43°21' E 009°25'1110.9
2016-May-07 23:33N 43°11' E 009°30'1111.2
2016-May-07 22:33N 43°00' E 009°35'8010.9
2016-May-07 15:13N 41°43' E 010°01'355 8.0
2016-May-05 19:06N 35°50' E 010°39'0 0.0
2016-May-05 13:06N 35°50' E 010°39'  

Dump ship's entire track history